Pagrindinis puslapis
METAR-TAF:

METAR-TAF

Oro uostai :

Užicė, Serbija

platuma: 43-53-56N, ilguma: 19-41-52E, Aukštis: 904 m

Dabartinis oras

Ataskaita buvo paskelbta 22 minutes, ne 19:30 UTC
Vėjas 1 kt nuo kintamojo kryptimis
Temperatūra -4°C
Drėgmė 93%
Slėgis 1020 hPa
Matomumas: 0250 m
įšaldymas rūko

METAR: LYUZ 181930Z AUTO VRB01KT 0250 FZFG VV001 M04/M05 Q1020

Laikas: 20:52 (19:52 UTC)

Prognozė

Ataskaita buvo paskelbta 2 valandos ir 52 minutes, ne 17:00 UTC
Prognozė galioja nuo 18 metu 18 UTC su 19 metu 18 UTC
Vėjas 6 kt iš Šiaurės Vakarų
Matomumas: 0300 m
ne aukštis 100 ft
įšaldymas rūko
Laikinai
nuo 19 metu 00 UTC su 19 metu 18 UTC
sniegas

TAF: LYUZ 181700Z 1818/1918 32006KT 0300 FZFG VV001 TXM04/1818Z TNM07/1906Z TEMPO 1900/1918 -SN

Orai ataskaitas ir orų prognozės (METAR, TAF).

turimą stotys yra geltonos ir raudonos taškus žemėlapyje.

Perkelti pele per norėdami pamatyti stoties vardą.

Tada spustelėkite, norėdami matyti oro stebėjimo ir prognozės.

Norėdami pakeisti žemėlapį: spustelėkite ant žalios mygtukų su juodo kryžiaus žemyn,; žalią mygtuką su brūkšneliu, jei norite nutolinti; arba žalių rodyklių gretimoms žemėlapius.


METAR-TAF: